sensor_id;sensor_type;location;lat;lon;timestamp;P1;durP1;ratioP1;P2;durP2;ratioP2
31618;SDS011;18230;51.502;7.108;2023-07-22T00:04:45;12.32;;;8.88;;
31618;SDS011;18230;51.502;7.108;2023-07-22T00:09:45;18.52;;;11.82;;
31618;SDS011;18230;51.502;7.108;2023-07-22T00:14:46;14.57;;;8.57;;
31618;SDS011;18230;51.502;7.108;2023-07-22T00:19:47;14.05;;;9.05;;
31618;SDS011;18230;51.502;7.108;2023-07-22T00:24:50;16.42;;;8.77;;
31618;SDS011;18230;51.502;7.108;2023-07-22T00:29:50;12.98;;;8.77;;
31618;SDS011;18230;51.502;7.108;2023-07-22T00:34:51;13.00;;;8.85;;
31618;SDS011;18230;51.502;7.108;2023-07-22T00:39:52;13.98;;;9.20;;
31618;SDS011;18230;51.502;7.108;2023-07-22T00:44:53;12.10;;;9.20;;
31618;SDS011;18230;51.502;7.108;2023-07-22T00:49:54;12.93;;;8.40;;
31618;SDS011;18230;51.502;7.108;2023-07-22T00:54:55;15.90;;;8.75;;
31618;SDS011;18230;51.502;7.108;2023-07-22T00:59:56;16.88;;;9.30;;
31618;SDS011;18230;51.502;7.108;2023-07-22T01:04:57;12.48;;;9.52;;
31618;SDS011;18230;51.502;7.108;2023-07-22T01:09:58;12.80;;;8.73;;
31618;SDS011;18230;51.502;7.108;2023-07-22T01:14:58;12.57;;;9.02;;
31618;SDS011;18230;51.502;7.108;2023-07-22T01:20:00;15.25;;;8.38;;
31618;SDS011;18230;51.502;7.108;2023-07-22T01:25:01;11.52;;;8.30;;
31618;SDS011;18230;51.502;7.108;2023-07-22T01:30:02;13.52;;;9.15;;
31618;SDS011;18230;51.502;7.108;2023-07-22T01:35:03;13.68;;;9.10;;
31618;SDS011;18230;51.502;7.108;2023-07-22T01:40:04;15.02;;;9.38;;
31618;SDS011;18230;51.502;7.108;2023-07-22T01:45:12;12.48;;;8.40;;
31618;SDS011;18230;51.502;7.108;2023-07-22T01:50:12;12.73;;;8.32;;
31618;SDS011;18230;51.502;7.108;2023-07-22T01:55:13;14.05;;;8.20;;
31618;SDS011;18230;51.502;7.108;2023-07-22T02:00:13;13.45;;;9.05;;
31618;SDS011;18230;51.502;7.108;2023-07-22T02:05:15;13.75;;;8.82;;
31618;SDS011;18230;51.502;7.108;2023-07-22T02:10:15;10.75;;;8.55;;
31618;SDS011;18230;51.502;7.108;2023-07-22T02:15:16;16.63;;;9.13;;
31618;SDS011;18230;51.502;7.108;2023-07-22T02:20:17;14.68;;;8.80;;
31618;SDS011;18230;51.502;7.108;2023-07-22T02:25:17;10.73;;;8.52;;
31618;SDS011;18230;51.502;7.108;2023-07-22T02:30:18;12.73;;;8.77;;
31618;SDS011;18230;51.502;7.108;2023-07-22T02:35:19;14.98;;;9.98;;
31618;SDS011;18230;51.502;7.108;2023-07-22T02:40:19;19.40;;;9.35;;
31618;SDS011;18230;51.502;7.108;2023-07-22T02:45:20;18.05;;;10.48;;
31618;SDS011;18230;51.502;7.108;2023-07-22T02:50:21;17.13;;;10.38;;
31618;SDS011;18230;51.502;7.108;2023-07-22T02:55:22;14.70;;;9.10;;
31618;SDS011;18230;51.502;7.108;2023-07-22T03:00:23;16.23;;;9.73;;
31618;SDS011;18230;51.502;7.108;2023-07-22T03:05:23;13.80;;;8.80;;
31618;SDS011;18230;51.502;7.108;2023-07-22T03:10:25;15.50;;;9.60;;
31618;SDS011;18230;51.502;7.108;2023-07-22T03:15:26;13.02;;;8.35;;
31618;SDS011;18230;51.502;7.108;2023-07-22T03:20:28;13.93;;;8.73;;
31618;SDS011;18230;51.502;7.108;2023-07-22T03:25:28;18.73;;;9.60;;
31618;SDS011;18230;51.502;7.108;2023-07-22T03:30:29;11.75;;;7.90;;
31618;SDS011;18230;51.502;7.108;2023-07-22T03:35:30;12.27;;;8.88;;
31618;SDS011;18230;51.502;7.108;2023-07-22T03:40:32;11.55;;;8.27;;
31618;SDS011;18230;51.502;7.108;2023-07-22T03:45:33;12.18;;;8.18;;
31618;SDS011;18230;51.502;7.108;2023-07-22T03:50:34;13.13;;;8.73;;
31618;SDS011;18230;51.502;7.108;2023-07-22T03:55:35;13.85;;;8.13;;
31618;SDS011;18230;51.502;7.108;2023-07-22T04:00:37;14.85;;;8.63;;
31618;SDS011;18230;51.502;7.108;2023-07-22T04:05:38;17.92;;;7.82;;
31618;SDS011;18230;51.502;7.108;2023-07-22T04:10:38;12.35;;;7.75;;
31618;SDS011;18230;51.502;7.108;2023-07-22T04:15:39;14.45;;;8.10;;
31618;SDS011;18230;51.502;7.108;2023-07-22T04:20:40;13.85;;;7.55;;
31618;SDS011;18230;51.502;7.108;2023-07-22T04:25:41;11.35;;;7.18;;
31618;SDS011;18230;51.502;7.108;2023-07-22T04:30:43;14.50;;;7.82;;
31618;SDS011;18230;51.502;7.108;2023-07-22T04:35:56;11.93;;;7.07;;
31618;SDS011;18230;51.502;7.108;2023-07-22T04:40:58;12.30;;;6.70;;
31618;SDS011;18230;51.502;7.108;2023-07-22T04:46:02;13.40;;;7.50;;
31618;SDS011;18230;51.502;7.108;2023-07-22T04:51:02;11.63;;;7.43;;
31618;SDS011;18230;51.502;7.108;2023-07-22T04:56:03;13.45;;;8.23;;
31618;SDS011;18230;51.502;7.108;2023-07-22T05:01:04;12.57;;;7.40;;
31618;SDS011;18230;51.502;7.108;2023-07-22T05:11:22;11.18;;;7.90;;
31618;SDS011;18230;51.502;7.108;2023-07-22T05:16:23;11.75;;;7.57;;
31618;SDS011;18230;51.502;7.108;2023-07-22T05:21:24;10.50;;;7.00;;
31618;SDS011;18230;51.502;7.108;2023-07-22T05:26:24;15.35;;;7.70;;
31618;SDS011;18230;51.502;7.108;2023-07-22T05:31:25;10.10;;;7.00;;
31618;SDS011;18230;51.502;7.108;2023-07-22T05:36:26;13.88;;;7.57;;
31618;SDS011;18230;51.502;7.108;2023-07-22T05:41:26;11.63;;;7.25;;
31618;SDS011;18230;51.502;7.108;2023-07-22T05:46:27;11.70;;;7.13;;
31618;SDS011;18230;51.502;7.108;2023-07-22T05:51:28;15.10;;;8.18;;
31618;SDS011;18230;51.502;7.108;2023-07-22T05:56:28;14.95;;;7.30;;
31618;SDS011;18230;51.502;7.108;2023-07-22T06:01:30;12.95;;;7.80;;
31618;SDS011;18230;51.502;7.108;2023-07-22T06:06:35;14.90;;;7.70;;
31618;SDS011;18230;51.502;7.108;2023-07-22T06:11:36;10.30;;;6.90;;
31618;SDS011;18230;51.502;7.108;2023-07-22T06:16:36;17.77;;;7.00;;
31618;SDS011;18230;51.502;7.108;2023-07-22T06:21:37;11.10;;;7.63;;
31618;SDS011;18230;51.502;7.108;2023-07-22T06:26:38;12.75;;;8.27;;
31618;SDS011;18230;51.502;7.108;2023-07-22T06:31:38;15.90;;;9.07;;
31618;SDS011;18230;51.502;7.108;2023-07-22T06:36:39;14.88;;;8.00;;
31618;SDS011;18230;51.502;7.108;2023-07-22T06:41:40;13.50;;;8.40;;
31618;SDS011;18230;51.502;7.108;2023-07-22T06:46:40;15.32;;;8.93;;
31618;SDS011;18230;51.502;7.108;2023-07-22T06:51:41;13.98;;;8.60;;
31618;SDS011;18230;51.502;7.108;2023-07-22T06:56:42;12.23;;;8.73;;
31618;SDS011;18230;51.502;7.108;2023-07-22T07:01:42;17.13;;;9.07;;
31618;SDS011;18230;51.502;7.108;2023-07-22T07:06:43;21.08;;;9.27;;
31618;SDS011;18230;51.502;7.108;2023-07-22T07:11:45;14.63;;;8.93;;
31618;SDS011;18230;51.502;7.108;2023-07-22T07:16:46;11.40;;;8.07;;
31618;SDS011;18230;51.502;7.108;2023-07-22T07:21:47;14.20;;;9.45;;
31618;SDS011;18230;51.502;7.108;2023-07-22T07:26:47;16.45;;;9.05;;
31618;SDS011;18230;51.502;7.108;2023-07-22T07:31:48;13.95;;;8.20;;
31618;SDS011;18230;51.502;7.108;2023-07-22T07:36:49;13.55;;;8.27;;
31618;SDS011;18230;51.502;7.108;2023-07-22T07:41:50;12.27;;;8.02;;
31618;SDS011;18230;51.502;7.108;2023-07-22T07:46:51;14.38;;;8.05;;
31618;SDS011;18230;51.502;7.108;2023-07-22T07:51:51;13.90;;;8.10;;
31618;SDS011;18230;51.502;7.108;2023-07-22T07:56:52;16.35;;;8.88;;
31618;SDS011;18230;51.502;7.108;2023-07-22T08:01:53;15.05;;;8.77;;
31618;SDS011;18230;51.502;7.108;2023-07-22T08:06:53;13.32;;;9.10;;
31618;SDS011;18230;51.502;7.108;2023-07-22T08:11:54;12.65;;;8.35;;
31618;SDS011;18230;51.502;7.108;2023-07-22T08:16:55;14.18;;;9.30;;
31618;SDS011;18230;51.502;7.108;2023-07-22T08:21:55;11.65;;;9.20;;
31618;SDS011;18230;51.502;7.108;2023-07-22T08:26:57;10.70;;;8.20;;
31618;SDS011;18230;51.502;7.108;2023-07-22T08:31:58;14.52;;;9.30;;
31618;SDS011;18230;51.502;7.108;2023-07-22T08:36:59;16.33;;;10.07;;
31618;SDS011;18230;51.502;7.108;2023-07-22T08:42:00;15.05;;;9.57;;
31618;SDS011;18230;51.502;7.108;2023-07-22T08:47:03;13.02;;;8.65;;
31618;SDS011;18230;51.502;7.108;2023-07-22T08:52:09;14.77;;;8.85;;
31618;SDS011;18230;51.502;7.108;2023-07-22T08:57:13;12.75;;;8.65;;
31618;SDS011;18230;51.502;7.108;2023-07-22T09:02:14;14.25;;;8.23;;
31618;SDS011;18230;51.502;7.108;2023-07-22T09:07:16;9.20;;;6.60;;
31618;SDS011;18230;51.502;7.108;2023-07-22T09:12:18;8.73;;;6.45;;
31618;SDS011;18230;51.502;7.108;2023-07-22T09:17:21;11.73;;;6.43;;
31618;SDS011;18230;51.502;7.108;2023-07-22T09:22:25;10.32;;;6.43;;
31618;SDS011;18230;51.502;7.108;2023-07-22T09:27:33;12.05;;;6.45;;
31618;SDS011;18230;51.502;7.108;2023-07-22T09:32:34;10.73;;;6.18;;
31618;SDS011;18230;51.502;7.108;2023-07-22T09:37:37;13.13;;;6.18;;
31618;SDS011;18230;51.502;7.108;2023-07-22T09:42:38;14.98;;;7.40;;
31618;SDS011;18230;51.502;7.108;2023-07-22T09:47:40;15.73;;;6.78;;
31618;SDS011;18230;51.502;7.108;2023-07-22T09:52:45;11.82;;;7.35;;
31618;SDS011;18230;51.502;7.108;2023-07-22T09:57:56;10.88;;;6.43;;
31618;SDS011;18230;51.502;7.108;2023-07-22T10:03:01;9.10;;;6.25;;
31618;SDS011;18230;51.502;7.108;2023-07-22T10:08:05;11.35;;;6.15;;
31618;SDS011;18230;51.502;7.108;2023-07-22T10:13:07;8.57;;;5.25;;
31618;SDS011;18230;51.502;7.108;2023-07-22T10:18:08;14.05;;;5.55;;
31618;SDS011;18230;51.502;7.108;2023-07-22T10:23:10;9.93;;;4.32;;
31618;SDS011;18230;51.502;7.108;2023-07-22T10:28:14;8.35;;;4.43;;
31618;SDS011;18230;51.502;7.108;2023-07-22T10:33:15;10.80;;;5.60;;
31618;SDS011;18230;51.502;7.108;2023-07-22T10:38:16;7.97;;;5.07;;
31618;SDS011;18230;51.502;7.108;2023-07-22T10:43:38;8.48;;;5.05;;
31618;SDS011;18230;51.502;7.108;2023-07-22T10:48:41;7.60;;;4.60;;
31618;SDS011;18230;51.502;7.108;2023-07-22T10:53:42;7.10;;;4.63;;
31618;SDS011;18230;51.502;7.108;2023-07-22T11:09:19;5.72;;;3.28;;
31618;SDS011;18230;51.502;7.108;2023-07-22T11:19:59;4.68;;;3.40;;
31618;SDS011;18230;51.502;7.108;2023-07-22T11:25:00;6.40;;;3.58;;
31618;SDS011;18230;51.502;7.108;2023-07-22T11:30:02;3.97;;;2.60;;
31618;SDS011;18230;51.502;7.108;2023-07-22T11:35:03;3.80;;;2.55;;
31618;SDS011;18230;51.502;7.108;2023-07-22T11:40:04;7.55;;;2.83;;
31618;SDS011;18230;51.502;7.108;2023-07-22T11:45:06;6.95;;;2.80;;
31618;SDS011;18230;51.502;7.108;2023-07-22T11:50:07;4.28;;;3.15;;
31618;SDS011;18230;51.502;7.108;2023-07-22T11:55:08;7.70;;;2.92;;
31618;SDS011;18230;51.502;7.108;2023-07-22T12:00:11;6.40;;;2.90;;
31618;SDS011;18230;51.502;7.108;2023-07-22T12:05:12;4.97;;;3.17;;
31618;SDS011;18230;51.502;7.108;2023-07-22T12:10:20;3.63;;;2.60;;
31618;SDS011;18230;51.502;7.108;2023-07-22T12:15:24;3.05;;;2.40;;
31618;SDS011;18230;51.502;7.108;2023-07-22T12:20:26;3.55;;;2.58;;
31618;SDS011;18230;51.502;7.108;2023-07-22T12:25:31;5.73;;;2.87;;
31618;SDS011;18230;51.502;7.108;2023-07-22T12:30:32;5.10;;;2.75;;
31618;SDS011;18230;51.502;7.108;2023-07-22T12:35:33;5.20;;;2.35;;
31618;SDS011;18230;51.502;7.108;2023-07-22T12:40:34;3.22;;;2.42;;
31618;SDS011;18230;51.502;7.108;2023-07-22T12:45:34;5.15;;;2.70;;
31618;SDS011;18230;51.502;7.108;2023-07-22T12:50:35;3.22;;;2.25;;
31618;SDS011;18230;51.502;7.108;2023-07-22T12:55:37;3.03;;;2.60;;
31618;SDS011;18230;51.502;7.108;2023-07-22T13:00:37;4.57;;;2.58;;
31618;SDS011;18230;51.502;7.108;2023-07-22T13:05:38;5.15;;;3.05;;
31618;SDS011;18230;51.502;7.108;2023-07-22T13:10:39;4.43;;;2.85;;
31618;SDS011;18230;51.502;7.108;2023-07-22T13:15:43;5.07;;;3.20;;
31618;SDS011;18230;51.502;7.108;2023-07-22T13:20:44;9.70;;;3.42;;
31618;SDS011;18230;51.502;7.108;2023-07-22T13:25:45;6.35;;;3.03;;
31618;SDS011;18230;51.502;7.108;2023-07-22T13:30:46;6.57;;;3.60;;
31618;SDS011;18230;51.502;7.108;2023-07-22T13:35:46;5.20;;;3.17;;
31618;SDS011;18230;51.502;7.108;2023-07-22T13:40:47;4.13;;;3.33;;
31618;SDS011;18230;51.502;7.108;2023-07-22T13:45:48;3.75;;;3.10;;
31618;SDS011;18230;51.502;7.108;2023-07-22T13:50:48;7.03;;;3.72;;
31618;SDS011;18230;51.502;7.108;2023-07-22T13:55:49;5.20;;;2.80;;
31618;SDS011;18230;51.502;7.108;2023-07-22T14:00:50;7.60;;;3.03;;
31618;SDS011;18230;51.502;7.108;2023-07-22T14:05:50;3.92;;;2.90;;
31618;SDS011;18230;51.502;7.108;2023-07-22T14:10:51;6.82;;;3.10;;
31618;SDS011;18230;51.502;7.108;2023-07-22T14:15:52;3.75;;;3.00;;
31618;SDS011;18230;51.502;7.108;2023-07-22T14:20:53;3.33;;;3.00;;
31618;SDS011;18230;51.502;7.108;2023-07-22T14:25:54;3.60;;;2.80;;
31618;SDS011;18230;51.502;7.108;2023-07-22T14:30:54;8.40;;;3.20;;
31618;SDS011;18230;51.502;7.108;2023-07-22T14:35:55;4.75;;;3.45;;
31618;SDS011;18230;51.502;7.108;2023-07-22T14:40:56;4.97;;;3.33;;
31618;SDS011;18230;51.502;7.108;2023-07-22T14:45:56;5.35;;;3.35;;
31618;SDS011;18230;51.502;7.108;2023-07-22T14:50:57;5.68;;;3.25;;
31618;SDS011;18230;51.502;7.108;2023-07-22T14:55:58;8.88;;;3.38;;
31618;SDS011;18230;51.502;7.108;2023-07-22T15:00:59;4.15;;;3.53;;
31618;SDS011;18230;51.502;7.108;2023-07-22T15:05:59;7.30;;;4.03;;
31618;SDS011;18230;51.502;7.108;2023-07-22T15:11:00;6.90;;;3.97;;
31618;SDS011;18230;51.502;7.108;2023-07-22T15:16:01;6.43;;;3.60;;
31618;SDS011;18230;51.502;7.108;2023-07-22T15:21:02;10.38;;;3.83;;
31618;SDS011;18230;51.502;7.108;2023-07-22T15:26:03;8.30;;;3.92;;
31618;SDS011;18230;51.502;7.108;2023-07-22T15:31:04;8.00;;;3.65;;
31618;SDS011;18230;51.502;7.108;2023-07-22T15:36:04;4.30;;;3.90;;
31618;SDS011;18230;51.502;7.108;2023-07-22T15:41:05;7.43;;;3.80;;
31618;SDS011;18230;51.502;7.108;2023-07-22T15:46:06;6.05;;;3.53;;
31618;SDS011;18230;51.502;7.108;2023-07-22T15:51:07;10.40;;;4.13;;
31618;SDS011;18230;51.502;7.108;2023-07-22T15:56:08;8.50;;;3.60;;
31618;SDS011;18230;51.502;7.108;2023-07-22T16:01:08;5.32;;;3.65;;
31618;SDS011;18230;51.502;7.108;2023-07-22T16:06:09;4.88;;;3.17;;
31618;SDS011;18230;51.502;7.108;2023-07-22T16:11:10;4.32;;;3.15;;
31618;SDS011;18230;51.502;7.108;2023-07-22T16:16:10;6.07;;;3.63;;
31618;SDS011;18230;51.502;7.108;2023-07-22T16:21:11;9.07;;;3.00;;
31618;SDS011;18230;51.502;7.108;2023-07-22T16:26:12;7.45;;;3.25;;
31618;SDS011;18230;51.502;7.108;2023-07-22T16:31:13;4.03;;;2.72;;
31618;SDS011;18230;51.502;7.108;2023-07-22T16:36:13;8.15;;;2.33;;
31618;SDS011;18230;51.502;7.108;2023-07-22T16:41:16;3.85;;;2.47;;
31618;SDS011;18230;51.502;7.108;2023-07-22T16:46:17;5.18;;;2.55;;
31618;SDS011;18230;51.502;7.108;2023-07-22T16:51:17;6.93;;;2.28;;
31618;SDS011;18230;51.502;7.108;2023-07-22T16:56:22;6.07;;;2.50;;
31618;SDS011;18230;51.502;7.108;2023-07-22T17:01:23;4.80;;;3.00;;
31618;SDS011;18230;51.502;7.108;2023-07-22T17:06:23;7.50;;;3.15;;
31618;SDS011;18230;51.502;7.108;2023-07-22T17:11:25;5.75;;;3.67;;
31618;SDS011;18230;51.502;7.108;2023-07-22T17:16:26;7.82;;;3.60;;
31618;SDS011;18230;51.502;7.108;2023-07-22T17:21:27;7.63;;;3.42;;
31618;SDS011;18230;51.502;7.108;2023-07-22T17:26:27;7.53;;;3.60;;
31618;SDS011;18230;51.502;7.108;2023-07-22T17:31:28;8.13;;;4.40;;
31618;SDS011;18230;51.502;7.108;2023-07-22T17:36:29;5.40;;;4.05;;
31618;SDS011;18230;51.502;7.108;2023-07-22T17:41:30;9.15;;;3.95;;
31618;SDS011;18230;51.502;7.108;2023-07-22T17:46:31;9.95;;;3.72;;
31618;SDS011;18230;51.502;7.108;2023-07-22T17:51:32;5.78;;;3.70;;
31618;SDS011;18230;51.502;7.108;2023-07-22T17:56:32;10.40;;;3.83;;
31618;SDS011;18230;51.502;7.108;2023-07-22T18:01:35;6.40;;;3.80;;
31618;SDS011;18230;51.502;7.108;2023-07-22T18:06:36;10.13;;;3.95;;
31618;SDS011;18230;51.502;7.108;2023-07-22T18:11:37;5.40;;;3.17;;
31618;SDS011;18230;51.502;7.108;2023-07-22T18:16:38;7.93;;;3.50;;
31618;SDS011;18230;51.502;7.108;2023-07-22T18:21:38;6.07;;;3.42;;
31618;SDS011;18230;51.502;7.108;2023-07-22T18:26:39;7.95;;;4.05;;
31618;SDS011;18230;51.502;7.108;2023-07-22T18:31:40;10.82;;;3.22;;
31618;SDS011;18230;51.502;7.108;2023-07-22T18:36:40;5.10;;;2.80;;
31618;SDS011;18230;51.502;7.108;2023-07-22T18:41:41;6.40;;;3.00;;
31618;SDS011;18230;51.502;7.108;2023-07-22T18:46:42;4.80;;;3.25;;
31618;SDS011;18230;51.502;7.108;2023-07-22T18:51:43;9.00;;;2.88;;
31618;SDS011;18230;51.502;7.108;2023-07-22T18:56:44;5.93;;;3.67;;
31618;SDS011;18230;51.502;7.108;2023-07-22T19:01:44;10.50;;;2.88;;
31618;SDS011;18230;51.502;7.108;2023-07-22T19:06:46;6.57;;;3.42;;
31618;SDS011;18230;51.502;7.108;2023-07-22T19:11:47;6.65;;;2.97;;
31618;SDS011;18230;51.502;7.108;2023-07-22T19:16:51;7.28;;;3.28;;
31618;SDS011;18230;51.502;7.108;2023-07-22T19:21:53;5.10;;;3.10;;
31618;SDS011;18230;51.502;7.108;2023-07-22T19:26:54;8.77;;;3.30;;
31618;SDS011;18230;51.502;7.108;2023-07-22T19:31:54;7.25;;;2.88;;
31618;SDS011;18230;51.502;7.108;2023-07-22T19:36:55;7.07;;;3.53;;
31618;SDS011;18230;51.502;7.108;2023-07-22T19:41:56;7.18;;;3.05;;
31618;SDS011;18230;51.502;7.108;2023-07-22T19:46:57;5.55;;;2.80;;
31618;SDS011;18230;51.502;7.108;2023-07-22T19:52:01;8.00;;;2.95;;
31618;SDS011;18230;51.502;7.108;2023-07-22T19:57:02;7.35;;;2.83;;
31618;SDS011;18230;51.502;7.108;2023-07-22T20:02:03;8.85;;;2.78;;
31618;SDS011;18230;51.502;7.108;2023-07-22T20:07:04;5.47;;;2.78;;
31618;SDS011;18230;51.502;7.108;2023-07-22T20:12:05;6.93;;;2.80;;
31618;SDS011;18230;51.502;7.108;2023-07-22T20:17:06;8.15;;;3.05;;
31618;SDS011;18230;51.502;7.108;2023-07-22T20:22:06;4.63;;;2.78;;
31618;SDS011;18230;51.502;7.108;2023-07-22T20:27:09;6.22;;;2.80;;
31618;SDS011;18230;51.502;7.108;2023-07-22T20:32:09;8.40;;;2.90;;
31618;SDS011;18230;51.502;7.108;2023-07-22T20:37:10;7.18;;;3.00;;
31618;SDS011;18230;51.502;7.108;2023-07-22T20:42:11;6.15;;;2.88;;
31618;SDS011;18230;51.502;7.108;2023-07-22T20:47:11;7.57;;;3.28;;
31618;SDS011;18230;51.502;7.108;2023-07-22T20:52:12;7.03;;;3.47;;
31618;SDS011;18230;51.502;7.108;2023-07-22T20:57:13;8.93;;;3.45;;
31618;SDS011;18230;51.502;7.108;2023-07-22T21:02:16;7.40;;;2.75;;
31618;SDS011;18230;51.502;7.108;2023-07-22T21:07:16;6.93;;;2.88;;
31618;SDS011;18230;51.502;7.108;2023-07-22T21:12:17;5.97;;;3.42;;
31618;SDS011;18230;51.502;7.108;2023-07-22T21:17:18;12.38;;;3.40;;
31618;SDS011;18230;51.502;7.108;2023-07-22T21:22:19;10.00;;;3.67;;
31618;SDS011;18230;51.502;7.108;2023-07-22T21:27:19;8.30;;;3.33;;
31618;SDS011;18230;51.502;7.108;2023-07-22T21:32:20;9.40;;;3.72;;
31618;SDS011;18230;51.502;7.108;2023-07-22T21:37:21;10.38;;;3.67;;
31618;SDS011;18230;51.502;7.108;2023-07-22T21:42:22;6.15;;;3.70;;
31618;SDS011;18230;51.502;7.108;2023-07-22T21:47:25;7.97;;;4.53;;
31618;SDS011;18230;51.502;7.108;2023-07-22T21:52:25;8.93;;;4.88;;
31618;SDS011;18230;51.502;7.108;2023-07-22T21:57:26;7.70;;;4.20;;
31618;SDS011;18230;51.502;7.108;2023-07-22T22:02:27;9.95;;;4.47;;
31618;SDS011;18230;51.502;7.108;2023-07-22T22:07:27;6.43;;;4.10;;
31618;SDS011;18230;51.502;7.108;2023-07-22T22:12:28;8.90;;;4.03;;
31618;SDS011;18230;51.502;7.108;2023-07-22T22:17:29;11.25;;;4.72;;
31618;SDS011;18230;51.502;7.108;2023-07-22T22:22:29;8.48;;;4.38;;
31618;SDS011;18230;51.502;7.108;2023-07-22T22:27:30;8.98;;;4.70;;
31618;SDS011;18230;51.502;7.108;2023-07-22T22:32:31;11.85;;;5.07;;
31618;SDS011;18230;51.502;7.108;2023-07-22T22:37:32;7.15;;;4.25;;
31618;SDS011;18230;51.502;7.108;2023-07-22T22:42:32;8.95;;;4.22;;
31618;SDS011;18230;51.502;7.108;2023-07-22T22:47:33;10.45;;;4.60;;
31618;SDS011;18230;51.502;7.108;2023-07-22T22:52:34;9.57;;;4.45;;
31618;SDS011;18230;51.502;7.108;2023-07-22T22:57:34;8.15;;;4.65;;
31618;SDS011;18230;51.502;7.108;2023-07-22T23:02:35;10.43;;;4.47;;
31618;SDS011;18230;51.502;7.108;2023-07-22T23:07:36;7.05;;;4.28;;
31618;SDS011;18230;51.502;7.108;2023-07-22T23:12:37;9.10;;;5.20;;
31618;SDS011;18230;51.502;7.108;2023-07-22T23:17:39;10.35;;;4.80;;
31618;SDS011;18230;51.502;7.108;2023-07-22T23:22:40;9.52;;;5.03;;
31618;SDS011;18230;51.502;7.108;2023-07-22T23:27:41;7.72;;;4.68;;
31618;SDS011;18230;51.502;7.108;2023-07-22T23:32:42;8.77;;;5.40;;
31618;SDS011;18230;51.502;7.108;2023-07-22T23:37:42;7.90;;;5.07;;
31618;SDS011;18230;51.502;7.108;2023-07-22T23:42:43;10.27;;;4.75;;
31618;SDS011;18230;51.502;7.108;2023-07-22T23:47:44;15.07;;;5.28;;
31618;SDS011;18230;51.502;7.108;2023-07-22T23:52:45;11.88;;;5.25;;
31618;SDS011;18230;51.502;7.108;2023-07-22T23:57:45;9.82;;;5.38;;
